sensor_id;sensor_type;location;lat;lon;timestamp;temperature;humidity
837;DHT22;400;53.550;9.932;2024-03-08T00:00:10;5.50;1.00
837;DHT22;400;53.550;9.932;2024-03-08T00:02:38;5.50;1.00
837;DHT22;400;53.550;9.932;2024-03-08T00:05:07;5.50;1.00
837;DHT22;400;53.550;9.932;2024-03-08T00:07:37;5.50;1.00
837;DHT22;400;53.550;9.932;2024-03-08T00:10:05;5.40;1.00
837;DHT22;400;53.550;9.932;2024-03-08T00:12:33;5.40;1.00
837;DHT22;400;53.550;9.932;2024-03-08T00:15:00;5.40;1.00
837;DHT22;400;53.550;9.932;2024-03-08T00:17:27;5.40;1.00
837;DHT22;400;53.550;9.932;2024-03-08T00:19:54;5.40;1.00
837;DHT22;400;53.550;9.932;2024-03-08T00:22:21;5.40;1.00
837;DHT22;400;53.550;9.932;2024-03-08T00:24:56;5.40;1.00
837;DHT22;400;53.550;9.932;2024-03-08T00:27:23;5.40;1.00
837;DHT22;400;53.550;9.932;2024-03-08T00:29:51;5.40;1.00
837;DHT22;400;53.550;9.932;2024-03-08T00:32:18;5.30;1.00
837;DHT22;400;53.550;9.932;2024-03-08T00:34:44;5.30;1.00
837;DHT22;400;53.550;9.932;2024-03-08T00:37:12;5.30;1.00
837;DHT22;400;53.550;9.932;2024-03-08T00:39:44;5.30;1.00
837;DHT22;400;53.550;9.932;2024-03-08T00:42:13;5.30;1.00
837;DHT22;400;53.550;9.932;2024-03-08T00:44:40;5.20;1.00
837;DHT22;400;53.550;9.932;2024-03-08T00:47:07;5.20;1.00
837;DHT22;400;53.550;9.932;2024-03-08T00:49:34;5.20;1.00
837;DHT22;400;53.550;9.932;2024-03-08T00:52:02;5.20;1.00
837;DHT22;400;53.550;9.932;2024-03-08T00:54:31;5.20;1.00
837;DHT22;400;53.550;9.932;2024-03-08T00:56:58;5.20;1.00
837;DHT22;400;53.550;9.932;2024-03-08T00:59:27;5.20;1.00
837;DHT22;400;53.550;9.932;2024-03-08T01:01:54;5.20;1.00
837;DHT22;400;53.550;9.932;2024-03-08T01:04:22;5.20;1.00
837;DHT22;400;53.550;9.932;2024-03-08T01:06:51;5.20;1.00
837;DHT22;400;53.550;9.932;2024-03-08T01:09:18;5.20;1.00
837;DHT22;400;53.550;9.932;2024-03-08T01:11:47;5.20;1.00
837;DHT22;400;53.550;9.932;2024-03-08T01:14:15;5.20;1.00
837;DHT22;400;53.550;9.932;2024-03-08T01:16:43;5.10;1.00
837;DHT22;400;53.550;9.932;2024-03-08T01:19:10;5.10;1.00
837;DHT22;400;53.550;9.932;2024-03-08T01:21:37;5.10;1.00
837;DHT22;400;53.550;9.932;2024-03-08T01:24:04;5.10;1.00
837;DHT22;400;53.550;9.932;2024-03-08T01:26:31;5.10;1.00
837;DHT22;400;53.550;9.932;2024-03-08T01:28:59;5.00;1.00
837;DHT22;400;53.550;9.932;2024-03-08T01:31:28;5.00;1.00
837;DHT22;400;53.550;9.932;2024-03-08T01:33:56;5.00;1.00
837;DHT22;400;53.550;9.932;2024-03-08T01:36:24;5.00;1.00
837;DHT22;400;53.550;9.932;2024-03-08T01:38:51;4.90;1.00
837;DHT22;400;53.550;9.932;2024-03-08T01:41:18;4.90;1.00
837;DHT22;400;53.550;9.932;2024-03-08T01:43:46;4.90;1.00
837;DHT22;400;53.550;9.932;2024-03-08T01:46:17;4.90;1.00
837;DHT22;400;53.550;9.932;2024-03-08T01:48:47;4.90;1.00
837;DHT22;400;53.550;9.932;2024-03-08T01:51:18;4.90;1.00
837;DHT22;400;53.550;9.932;2024-03-08T01:53:46;4.90;1.00
837;DHT22;400;53.550;9.932;2024-03-08T01:56:14;4.90;1.00
837;DHT22;400;53.550;9.932;2024-03-08T01:58:41;4.90;1.00
837;DHT22;400;53.550;9.932;2024-03-08T02:01:11;4.90;1.00
837;DHT22;400;53.550;9.932;2024-03-08T02:03:39;4.90;1.00
837;DHT22;400;53.550;9.932;2024-03-08T02:06:05;4.90;1.00
837;DHT22;400;53.550;9.932;2024-03-08T02:08:37;4.90;1.00
837;DHT22;400;53.550;9.932;2024-03-08T02:11:04;4.90;1.00
837;DHT22;400;53.550;9.932;2024-03-08T02:13:31;4.90;1.00
837;DHT22;400;53.550;9.932;2024-03-08T02:16:00;4.90;1.00
837;DHT22;400;53.550;9.932;2024-03-08T02:18:29;4.90;1.00
837;DHT22;400;53.550;9.932;2024-03-08T02:20:58;4.80;1.00
837;DHT22;400;53.550;9.932;2024-03-08T02:23:26;4.90;1.00
837;DHT22;400;53.550;9.932;2024-03-08T02:25:55;4.90;1.00
837;DHT22;400;53.550;9.932;2024-03-08T02:28:23;4.80;1.00
837;DHT22;400;53.550;9.932;2024-03-08T02:30:51;4.80;1.00
837;DHT22;400;53.550;9.932;2024-03-08T02:33:20;4.80;1.00
837;DHT22;400;53.550;9.932;2024-03-08T02:35:48;4.80;1.00
837;DHT22;400;53.550;9.932;2024-03-08T02:38:18;4.80;1.00
837;DHT22;400;53.550;9.932;2024-03-08T02:40:46;4.80;1.00
837;DHT22;400;53.550;9.932;2024-03-08T02:43:14;4.80;1.00
837;DHT22;400;53.550;9.932;2024-03-08T02:45:42;4.80;1.00
837;DHT22;400;53.550;9.932;2024-03-08T02:48:09;4.80;1.00
837;DHT22;400;53.550;9.932;2024-03-08T02:50:37;4.70;1.00
837;DHT22;400;53.550;9.932;2024-03-08T02:53:05;4.70;1.00
837;DHT22;400;53.550;9.932;2024-03-08T02:55:34;4.70;1.00
837;DHT22;400;53.550;9.932;2024-03-08T02:58:01;4.60;1.00
837;DHT22;400;53.550;9.932;2024-03-08T03:00:30;4.60;1.00
837;DHT22;400;53.550;9.932;2024-03-08T03:02:58;4.60;1.00
837;DHT22;400;53.550;9.932;2024-03-08T03:05:28;4.60;1.00
837;DHT22;400;53.550;9.932;2024-03-08T03:07:56;4.50;1.00
837;DHT22;400;53.550;9.932;2024-03-08T03:10:23;4.50;1.00
837;DHT22;400;53.550;9.932;2024-03-08T03:12:52;4.50;1.00
837;DHT22;400;53.550;9.932;2024-03-08T03:15:20;4.40;1.00
837;DHT22;400;53.550;9.932;2024-03-08T03:17:47;4.30;1.00
837;DHT22;400;53.550;9.932;2024-03-08T03:20:14;4.30;1.00
837;DHT22;400;53.550;9.932;2024-03-08T03:22:48;4.30;1.00
837;DHT22;400;53.550;9.932;2024-03-08T03:25:18;4.20;1.00
837;DHT22;400;53.550;9.932;2024-03-08T03:27:52;4.30;1.00
837;DHT22;400;53.550;9.932;2024-03-08T03:30:21;4.20;1.00
837;DHT22;400;53.550;9.932;2024-03-08T03:32:49;4.30;1.00
837;DHT22;400;53.550;9.932;2024-03-08T03:35:17;4.30;1.00
837;DHT22;400;53.550;9.932;2024-03-08T03:37:44;4.20;1.00
837;DHT22;400;53.550;9.932;2024-03-08T03:40:26;4.20;1.00
837;DHT22;400;53.550;9.932;2024-03-08T03:42:55;4.10;1.00
837;DHT22;400;53.550;9.932;2024-03-08T03:45:22;4.10;1.00
837;DHT22;400;53.550;9.932;2024-03-08T03:47:48;4.00;1.00
837;DHT22;400;53.550;9.932;2024-03-08T03:50:16;4.00;1.00
837;DHT22;400;53.550;9.932;2024-03-08T03:52:44;3.90;1.00
837;DHT22;400;53.550;9.932;2024-03-08T03:55:12;3.90;1.00
837;DHT22;400;53.550;9.932;2024-03-08T03:57:39;3.90;1.00
837;DHT22;400;53.550;9.932;2024-03-08T04:00:08;3.90;1.00
837;DHT22;400;53.550;9.932;2024-03-08T04:02:36;3.90;1.00
837;DHT22;400;53.550;9.932;2024-03-08T04:05:04;3.90;1.00
837;DHT22;400;53.550;9.932;2024-03-08T04:07:31;3.90;1.00
837;DHT22;400;53.550;9.932;2024-03-08T04:09:58;3.80;1.00
837;DHT22;400;53.550;9.932;2024-03-08T04:12:25;3.80;1.00
837;DHT22;400;53.550;9.932;2024-03-08T04:14:54;3.80;1.00
837;DHT22;400;53.550;9.932;2024-03-08T04:17:22;3.90;1.00
837;DHT22;400;53.550;9.932;2024-03-08T04:19:50;3.90;1.00
837;DHT22;400;53.550;9.932;2024-03-08T04:22:17;3.90;1.00
837;DHT22;400;53.550;9.932;2024-03-08T04:24:44;3.90;1.00
837;DHT22;400;53.550;9.932;2024-03-08T04:27:11;3.90;1.00
837;DHT22;400;53.550;9.932;2024-03-08T04:29:40;3.90;1.00
837;DHT22;400;53.550;9.932;2024-03-08T04:32:09;3.90;1.00
837;DHT22;400;53.550;9.932;2024-03-08T04:34:40;3.90;1.00
837;DHT22;400;53.550;9.932;2024-03-08T04:37:07;3.90;1.00
837;DHT22;400;53.550;9.932;2024-03-08T04:39:36;3.90;1.00
837;DHT22;400;53.550;9.932;2024-03-08T04:42:04;3.80;1.00
837;DHT22;400;53.550;9.932;2024-03-08T04:44:35;3.80;1.00
837;DHT22;400;53.550;9.932;2024-03-08T04:47:03;3.80;1.00
837;DHT22;400;53.550;9.932;2024-03-08T04:49:31;3.70;1.00
837;DHT22;400;53.550;9.932;2024-03-08T04:52:01;3.70;1.00
837;DHT22;400;53.550;9.932;2024-03-08T04:54:29;3.60;1.00
837;DHT22;400;53.550;9.932;2024-03-08T04:56:56;3.60;1.00
837;DHT22;400;53.550;9.932;2024-03-08T04:59:23;3.60;1.00
837;DHT22;400;53.550;9.932;2024-03-08T05:01:50;3.60;1.00
837;DHT22;400;53.550;9.932;2024-03-08T05:04:17;3.60;1.00
837;DHT22;400;53.550;9.932;2024-03-08T05:06:44;3.60;1.00
837;DHT22;400;53.550;9.932;2024-03-08T05:09:12;3.70;1.00
837;DHT22;400;53.550;9.932;2024-03-08T05:11:41;3.70;1.00
837;DHT22;400;53.550;9.932;2024-03-08T05:14:09;3.70;1.00
837;DHT22;400;53.550;9.932;2024-03-08T05:16:36;3.70;1.00
837;DHT22;400;53.550;9.932;2024-03-08T05:19:03;3.70;1.00
837;DHT22;400;53.550;9.932;2024-03-08T05:21:33;3.70;1.00
837;DHT22;400;53.550;9.932;2024-03-08T05:24:06;3.60;1.00
837;DHT22;400;53.550;9.932;2024-03-08T05:26:37;3.70;1.00
837;DHT22;400;53.550;9.932;2024-03-08T05:29:04;3.60;1.00
837;DHT22;400;53.550;9.932;2024-03-08T05:31:38;3.70;1.00
837;DHT22;400;53.550;9.932;2024-03-08T05:34:05;3.70;1.00
837;DHT22;400;53.550;9.932;2024-03-08T05:36:35;3.70;1.00
837;DHT22;400;53.550;9.932;2024-03-08T05:39:03;3.70;1.00
837;DHT22;400;53.550;9.932;2024-03-08T05:41:31;3.70;1.00
837;DHT22;400;53.550;9.932;2024-03-08T05:44:06;3.70;1.00
837;DHT22;400;53.550;9.932;2024-03-08T05:46:36;3.60;1.00
837;DHT22;400;53.550;9.932;2024-03-08T05:49:03;3.70;1.00
837;DHT22;400;53.550;9.932;2024-03-08T05:51:31;3.70;1.00
837;DHT22;400;53.550;9.932;2024-03-08T05:54:01;3.60;1.00
837;DHT22;400;53.550;9.932;2024-03-08T05:56:29;3.60;1.00
837;DHT22;400;53.550;9.932;2024-03-08T05:58:56;3.60;1.00
837;DHT22;400;53.550;9.932;2024-03-08T06:01:25;3.60;1.00
837;DHT22;400;53.550;9.932;2024-03-08T06:03:53;3.60;1.00
837;DHT22;400;53.550;9.932;2024-03-08T06:06:21;3.60;1.00
837;DHT22;400;53.550;9.932;2024-03-08T06:08:49;3.60;1.00
837;DHT22;400;53.550;9.932;2024-03-08T06:11:16;3.60;1.00
837;DHT22;400;53.550;9.932;2024-03-08T06:13:43;3.60;1.00
837;DHT22;400;53.550;9.932;2024-03-08T06:16:10;3.70;1.00
837;DHT22;400;53.550;9.932;2024-03-08T06:18:38;3.70;1.00
837;DHT22;400;53.550;9.932;2024-03-08T06:21:07;3.70;1.00
837;DHT22;400;53.550;9.932;2024-03-08T06:23:37;3.70;1.00
837;DHT22;400;53.550;9.932;2024-03-08T06:26:07;3.70;1.00
837;DHT22;400;53.550;9.932;2024-03-08T06:28:37;3.70;1.00
837;DHT22;400;53.550;9.932;2024-03-08T06:31:04;3.70;1.00
837;DHT22;400;53.550;9.932;2024-03-08T06:33:34;3.70;1.00
837;DHT22;400;53.550;9.932;2024-03-08T06:36:20;3.70;1.00
837;DHT22;400;53.550;9.932;2024-03-08T06:38:56;3.70;1.00
837;DHT22;400;53.550;9.932;2024-03-08T06:41:26;3.70;1.00
837;DHT22;400;53.550;9.932;2024-03-08T06:43:52;3.80;1.00
837;DHT22;400;53.550;9.932;2024-03-08T06:46:26;3.80;1.00
837;DHT22;400;53.550;9.932;2024-03-08T06:49:02;3.80;1.00
837;DHT22;400;53.550;9.932;2024-03-08T06:51:39;3.80;1.00
837;DHT22;400;53.550;9.932;2024-03-08T06:54:09;3.80;1.00
837;DHT22;400;53.550;9.932;2024-03-08T06:56:38;3.80;1.00
837;DHT22;400;53.550;9.932;2024-03-08T06:59:09;3.90;1.00
837;DHT22;400;53.550;9.932;2024-03-08T07:01:39;3.80;1.00
837;DHT22;400;53.550;9.932;2024-03-08T07:04:07;3.90;1.00
837;DHT22;400;53.550;9.932;2024-03-08T07:06:34;3.90;1.00
837;DHT22;400;53.550;9.932;2024-03-08T07:09:10;3.90;1.00
837;DHT22;400;53.550;9.932;2024-03-08T07:11:38;3.90;1.00
837;DHT22;400;53.550;9.932;2024-03-08T07:14:06;4.00;1.00
837;DHT22;400;53.550;9.932;2024-03-08T07:16:33;4.00;1.00
837;DHT22;400;53.550;9.932;2024-03-08T07:19:04;4.00;1.00
837;DHT22;400;53.550;9.932;2024-03-08T07:21:43;4.00;1.00
837;DHT22;400;53.550;9.932;2024-03-08T07:24:26;4.10;1.00
837;DHT22;400;53.550;9.932;2024-03-08T07:27:05;4.10;1.00
837;DHT22;400;53.550;9.932;2024-03-08T07:29:36;4.10;1.00
837;DHT22;400;53.550;9.932;2024-03-08T07:32:06;4.10;1.00
837;DHT22;400;53.550;9.932;2024-03-08T07:34:50;4.10;1.00
837;DHT22;400;53.550;9.932;2024-03-08T07:37:25;4.10;1.00
837;DHT22;400;53.550;9.932;2024-03-08T07:40:04;4.10;1.00
837;DHT22;400;53.550;9.932;2024-03-08T07:42:39;4.20;1.00
837;DHT22;400;53.550;9.932;2024-03-08T07:45:08;4.20;1.00
837;DHT22;400;53.550;9.932;2024-03-08T07:47:37;4.20;1.00
837;DHT22;400;53.550;9.932;2024-03-08T07:50:08;4.20;1.00
837;DHT22;400;53.550;9.932;2024-03-08T07:52:43;4.20;1.00
837;DHT22;400;53.550;9.932;2024-03-08T07:55:16;4.20;1.00
837;DHT22;400;53.550;9.932;2024-03-08T07:57:43;4.30;1.00
837;DHT22;400;53.550;9.932;2024-03-08T08:00:11;4.30;1.00
837;DHT22;400;53.550;9.932;2024-03-08T08:02:45;4.30;1.00
837;DHT22;400;53.550;9.932;2024-03-08T08:05:17;4.40;1.00
837;DHT22;400;53.550;9.932;2024-03-08T08:07:49;4.40;1.00
837;DHT22;400;53.550;9.932;2024-03-08T08:10:23;4.40;1.00
837;DHT22;400;53.550;9.932;2024-03-08T08:12:54;4.50;1.00
837;DHT22;400;53.550;9.932;2024-03-08T08:15:27;4.60;1.00
837;DHT22;400;53.550;9.932;2024-03-08T08:18:03;4.60;1.00
837;DHT22;400;53.550;9.932;2024-03-08T08:20:35;4.70;1.00
837;DHT22;400;53.550;9.932;2024-03-08T08:23:03;4.70;1.00
837;DHT22;400;53.550;9.932;2024-03-08T08:25:31;4.70;1.00
837;DHT22;400;53.550;9.932;2024-03-08T08:28:00;4.80;1.00
837;DHT22;400;53.550;9.932;2024-03-08T08:30:29;4.80;1.00
837;DHT22;400;53.550;9.932;2024-03-08T08:32:58;4.70;1.00
837;DHT22;400;53.550;9.932;2024-03-08T08:35:31;4.80;1.00
837;DHT22;400;53.550;9.932;2024-03-08T08:37:58;4.80;1.00
837;DHT22;400;53.550;9.932;2024-03-08T08:40:30;4.80;1.00
837;DHT22;400;53.550;9.932;2024-03-08T08:42:57;4.80;1.00
837;DHT22;400;53.550;9.932;2024-03-08T08:45:25;4.90;1.00
837;DHT22;400;53.550;9.932;2024-03-08T08:47:55;4.90;1.00
837;DHT22;400;53.550;9.932;2024-03-08T08:50:22;5.00;1.00
837;DHT22;400;53.550;9.932;2024-03-08T08:52:49;5.00;1.00
837;DHT22;400;53.550;9.932;2024-03-08T08:55:21;5.10;1.00
837;DHT22;400;53.550;9.932;2024-03-08T08:57:54;5.10;1.00
837;DHT22;400;53.550;9.932;2024-03-08T09:00:28;5.20;1.00
837;DHT22;400;53.550;9.932;2024-03-08T09:02:57;5.20;1.00
837;DHT22;400;53.550;9.932;2024-03-08T09:05:24;5.20;1.00
837;DHT22;400;53.550;9.932;2024-03-08T09:08:01;5.20;1.00
837;DHT22;400;53.550;9.932;2024-03-08T09:10:28;5.20;1.00
837;DHT22;400;53.550;9.932;2024-03-08T09:12:56;5.30;1.00
837;DHT22;400;53.550;9.932;2024-03-08T09:15:24;5.30;1.00
837;DHT22;400;53.550;9.932;2024-03-08T09:17:56;5.30;1.00
837;DHT22;400;53.550;9.932;2024-03-08T09:20:38;5.40;1.00
837;DHT22;400;53.550;9.932;2024-03-08T09:23:26;5.40;1.00
837;DHT22;400;53.550;9.932;2024-03-08T09:25:57;5.50;1.00
837;DHT22;400;53.550;9.932;2024-03-08T09:28:28;5.50;1.00
837;DHT22;400;53.550;9.932;2024-03-08T09:30:55;5.60;1.00
837;DHT22;400;53.550;9.932;2024-03-08T09:33:25;5.60;1.00
837;DHT22;400;53.550;9.932;2024-03-08T09:35:58;5.70;1.00
837;DHT22;400;53.550;9.932;2024-03-08T09:38:29;5.70;1.00
837;DHT22;400;53.550;9.932;2024-03-08T09:40:56;5.70;1.00
837;DHT22;400;53.550;9.932;2024-03-08T09:43:23;5.80;1.00
837;DHT22;400;53.550;9.932;2024-03-08T09:45:51;5.90;1.00
837;DHT22;400;53.550;9.932;2024-03-08T09:48:19;5.90;1.00
837;DHT22;400;53.550;9.932;2024-03-08T09:50:46;6.00;1.00
837;DHT22;400;53.550;9.932;2024-03-08T09:53:14;6.00;1.00
837;DHT22;400;53.550;9.932;2024-03-08T09:55:42;6.10;1.00
837;DHT22;400;53.550;9.932;2024-03-08T09:58:13;6.10;1.00
837;DHT22;400;53.550;9.932;2024-03-08T10:01:09;6.10;1.00
837;DHT22;400;53.550;9.932;2024-03-08T10:03:42;6.20;1.00
837;DHT22;400;53.550;9.932;2024-03-08T10:06:14;6.20;1.00
837;DHT22;400;53.550;9.932;2024-03-08T10:08:40;6.30;1.00
837;DHT22;400;53.550;9.932;2024-03-08T10:11:08;6.40;1.00
837;DHT22;400;53.550;9.932;2024-03-08T10:13:37;6.40;1.00
837;DHT22;400;53.550;9.932;2024-03-08T10:16:07;6.50;1.00
837;DHT22;400;53.550;9.932;2024-03-08T10:18:35;6.50;1.00
837;DHT22;400;53.550;9.932;2024-03-08T10:21:03;6.60;1.00
837;DHT22;400;53.550;9.932;2024-03-08T10:23:30;6.60;1.00
837;DHT22;400;53.550;9.932;2024-03-08T10:25:57;6.60;1.00
837;DHT22;400;53.550;9.932;2024-03-08T10:28:24;6.60;1.00
837;DHT22;400;53.550;9.932;2024-03-08T10:30:52;6.70;1.00
837;DHT22;400;53.550;9.932;2024-03-08T10:33:26;6.70;1.00
837;DHT22;400;53.550;9.932;2024-03-08T10:35:57;6.70;1.00
837;DHT22;400;53.550;9.932;2024-03-08T10:38:38;6.80;1.00
837;DHT22;400;53.550;9.932;2024-03-08T10:41:07;6.80;1.00
837;DHT22;400;53.550;9.932;2024-03-08T10:43:49;6.90;1.00
837;DHT22;400;53.550;9.932;2024-03-08T10:46:25;6.90;1.00
837;DHT22;400;53.550;9.932;2024-03-08T10:49:00;6.90;1.00
837;DHT22;400;53.550;9.932;2024-03-08T10:51:32;6.90;1.00
837;DHT22;400;53.550;9.932;2024-03-08T10:54:02;7.00;1.00
837;DHT22;400;53.550;9.932;2024-03-08T10:56:35;7.00;1.00
837;DHT22;400;53.550;9.932;2024-03-08T10:59:07;7.00;1.00
837;DHT22;400;53.550;9.932;2024-03-08T11:01:38;7.10;1.00
837;DHT22;400;53.550;9.932;2024-03-08T11:04:13;7.10;1.00
837;DHT22;400;53.550;9.932;2024-03-08T11:06:51;7.10;1.00
837;DHT22;400;53.550;9.932;2024-03-08T11:09:35;7.10;1.00
837;DHT22;400;53.550;9.932;2024-03-08T11:12:25;7.20;1.00
837;DHT22;400;53.550;9.932;2024-03-08T11:14:56;7.20;1.00
837;DHT22;400;53.550;9.932;2024-03-08T11:17:45;7.30;1.00
837;DHT22;400;53.550;9.932;2024-03-08T11:20:16;7.40;1.00
837;DHT22;400;53.550;9.932;2024-03-08T11:22:49;7.40;1.00
837;DHT22;400;53.550;9.932;2024-03-08T11:25:34;7.50;1.00
837;DHT22;400;53.550;9.932;2024-03-08T11:28:11;7.60;1.00
837;DHT22;400;53.550;9.932;2024-03-08T11:30:43;7.70;1.00
837;DHT22;400;53.550;9.932;2024-03-08T11:33:12;7.70;1.00
837;DHT22;400;53.550;9.932;2024-03-08T11:35:46;7.70;1.00
837;DHT22;400;53.550;9.932;2024-03-08T11:38:14;7.70;1.00
837;DHT22;400;53.550;9.932;2024-03-08T11:40:46;7.80;1.00
837;DHT22;400;53.550;9.932;2024-03-08T11:43:25;7.70;1.00
837;DHT22;400;53.550;9.932;2024-03-08T11:46:09;7.70;1.00
837;DHT22;400;53.550;9.932;2024-03-08T11:48:43;7.70;1.00
837;DHT22;400;53.550;9.932;2024-03-08T11:51:19;7.80;1.00
837;DHT22;400;53.550;9.932;2024-03-08T11:53:52;7.80;1.00
837;DHT22;400;53.550;9.932;2024-03-08T11:56:23;7.90;1.00
837;DHT22;400;53.550;9.932;2024-03-08T11:58:56;7.90;1.00
837;DHT22;400;53.550;9.932;2024-03-08T12:01:27;7.90;1.00
837;DHT22;400;53.550;9.932;2024-03-08T12:03:55;8.00;1.00
837;DHT22;400;53.550;9.932;2024-03-08T12:06:35;8.00;1.00
837;DHT22;400;53.550;9.932;2024-03-08T12:09:03;8.10;1.00
837;DHT22;400;53.550;9.932;2024-03-08T12:11:30;8.10;1.00
837;DHT22;400;53.550;9.932;2024-03-08T12:14:00;8.10;1.00
837;DHT22;400;53.550;9.932;2024-03-08T12:16:35;8.10;1.00
837;DHT22;400;53.550;9.932;2024-03-08T12:19:08;8.20;1.00
837;DHT22;400;53.550;9.932;2024-03-08T12:21:41;8.20;1.00
837;DHT22;400;53.550;9.932;2024-03-08T12:24:17;8.30;1.00
837;DHT22;400;53.550;9.932;2024-03-08T12:26:56;8.30;1.00
837;DHT22;400;53.550;9.932;2024-03-08T12:29:37;8.30;1.00
837;DHT22;400;53.550;9.932;2024-03-08T12:32:21;8.30;1.00
837;DHT22;400;53.550;9.932;2024-03-08T12:34:54;8.40;1.00
837;DHT22;400;53.550;9.932;2024-03-08T12:37:26;8.40;1.00
837;DHT22;400;53.550;9.932;2024-03-08T12:39:54;8.50;1.00
837;DHT22;400;53.550;9.932;2024-03-08T12:42:24;8.50;1.00
837;DHT22;400;53.550;9.932;2024-03-08T12:44:52;8.60;1.00
837;DHT22;400;53.550;9.932;2024-03-08T12:47:19;8.60;1.00
837;DHT22;400;53.550;9.932;2024-03-08T12:49:46;8.60;1.00
837;DHT22;400;53.550;9.932;2024-03-08T12:52:15;8.60;1.00
837;DHT22;400;53.550;9.932;2024-03-08T12:54:48;8.60;1.00
837;DHT22;400;53.550;9.932;2024-03-08T12:57:23;8.60;1.00
837;DHT22;400;53.550;9.932;2024-03-08T12:59:58;8.60;1.00
837;DHT22;400;53.550;9.932;2024-03-08T13:02:38;8.70;1.00
837;DHT22;400;53.550;9.932;2024-03-08T13:05:06;8.70;1.00
837;DHT22;400;53.550;9.932;2024-03-08T13:07:36;8.70;1.00
837;DHT22;400;53.550;9.932;2024-03-08T13:10:09;8.70;1.00
837;DHT22;400;53.550;9.932;2024-03-08T13:12:43;8.70;1.00
837;DHT22;400;53.550;9.932;2024-03-08T13:15:15;8.80;1.00
837;DHT22;400;53.550;9.932;2024-03-08T13:17:51;8.80;1.00
837;DHT22;400;53.550;9.932;2024-03-08T13:20:28;8.80;1.00
837;DHT22;400;53.550;9.932;2024-03-08T13:23:01;8.80;1.00
837;DHT22;400;53.550;9.932;2024-03-08T13:25:36;8.80;1.00
837;DHT22;400;53.550;9.932;2024-03-08T13:28:09;8.80;1.00
837;DHT22;400;53.550;9.932;2024-03-08T13:30:39;8.90;1.00
837;DHT22;400;53.550;9.932;2024-03-08T13:33:10;8.90;1.00
837;DHT22;400;53.550;9.932;2024-03-08T13:35:40;8.90;1.00
837;DHT22;400;53.550;9.932;2024-03-08T13:38:11;8.90;1.00
837;DHT22;400;53.550;9.932;2024-03-08T13:40:40;9.00;1.00
837;DHT22;400;53.550;9.932;2024-03-08T13:43:08;9.00;1.00
837;DHT22;400;53.550;9.932;2024-03-08T13:45:38;9.00;1.00
837;DHT22;400;53.550;9.932;2024-03-08T13:48:11;9.00;1.00
837;DHT22;400;53.550;9.932;2024-03-08T13:50:40;9.00;1.00
837;DHT22;400;53.550;9.932;2024-03-08T13:53:11;9.00;1.00
837;DHT22;400;53.550;9.932;2024-03-08T13:55:39;9.00;1.00
837;DHT22;400;53.550;9.932;2024-03-08T13:58:06;9.00;1.00
837;DHT22;400;53.550;9.932;2024-03-08T14:00:35;9.10;1.00
837;DHT22;400;53.550;9.932;2024-03-08T14:03:04;9.10;1.00
837;DHT22;400;53.550;9.932;2024-03-08T14:05:31;9.10;1.00
837;DHT22;400;53.550;9.932;2024-03-08T14:08:02;9.10;1.00
837;DHT22;400;53.550;9.932;2024-03-08T14:10:31;9.20;1.00
837;DHT22;400;53.550;9.932;2024-03-08T14:12:59;9.20;1.00
837;DHT22;400;53.550;9.932;2024-03-08T14:15:26;9.20;1.00
837;DHT22;400;53.550;9.932;2024-03-08T14:17:53;9.20;1.00
837;DHT22;400;53.550;9.932;2024-03-08T14:20:22;9.20;1.00
837;DHT22;400;53.550;9.932;2024-03-08T14:22:54;9.20;1.00
837;DHT22;400;53.550;9.932;2024-03-08T14:25:24;9.20;1.00
837;DHT22;400;53.550;9.932;2024-03-08T14:27:54;9.20;1.00
837;DHT22;400;53.550;9.932;2024-03-08T14:30:27;9.20;1.00
837;DHT22;400;53.550;9.932;2024-03-08T14:33:05;9.20;1.00
837;DHT22;400;53.550;9.932;2024-03-08T14:35:37;9.20;1.00
837;DHT22;400;53.550;9.932;2024-03-08T14:38:07;9.30;1.00
837;DHT22;400;53.550;9.932;2024-03-08T14:40:36;9.30;1.00
837;DHT22;400;53.550;9.932;2024-03-08T14:43:05;9.30;1.00
837;DHT22;400;53.550;9.932;2024-03-08T14:45:33;9.30;1.00
837;DHT22;400;53.550;9.932;2024-03-08T14:48:00;9.30;1.00
837;DHT22;400;53.550;9.932;2024-03-08T14:50:28;9.40;1.00
837;DHT22;400;53.550;9.932;2024-03-08T14:52:57;9.40;1.00
837;DHT22;400;53.550;9.932;2024-03-08T14:55:31;9.40;1.00
837;DHT22;400;53.550;9.932;2024-03-08T14:58:00;9.40;1.00
837;DHT22;400;53.550;9.932;2024-03-08T15:00:30;9.50;1.00
837;DHT22;400;53.550;9.932;2024-03-08T15:03:02;9.50;1.00
837;DHT22;400;53.550;9.932;2024-03-08T15:05:32;9.50;1.00
837;DHT22;400;53.550;9.932;2024-03-08T15:08:04;9.50;1.00
837;DHT22;400;53.550;9.932;2024-03-08T15:10:39;9.50;1.00
837;DHT22;400;53.550;9.932;2024-03-08T15:13:07;9.50;1.00
837;DHT22;400;53.550;9.932;2024-03-08T15:15:41;9.50;1.00
837;DHT22;400;53.550;9.932;2024-03-08T15:18:13;9.50;1.00
837;DHT22;400;53.550;9.932;2024-03-08T15:20:42;9.50;1.00
837;DHT22;400;53.550;9.932;2024-03-08T15:23:12;9.50;1.00
837;DHT22;400;53.550;9.932;2024-03-08T15:25:41;9.50;1.00
837;DHT22;400;53.550;9.932;2024-03-08T15:28:19;9.50;1.00
837;DHT22;400;53.550;9.932;2024-03-08T15:31:01;9.50;1.00
837;DHT22;400;53.550;9.932;2024-03-08T15:33:38;9.50;1.00
837;DHT22;400;53.550;9.932;2024-03-08T15:36:12;9.60;1.00
837;DHT22;400;53.550;9.932;2024-03-08T15:38:50;9.60;1.00
837;DHT22;400;53.550;9.932;2024-03-08T15:41:24;9.60;1.00
837;DHT22;400;53.550;9.932;2024-03-08T15:44:03;9.60;1.00
837;DHT22;400;53.550;9.932;2024-03-08T15:46:32;9.70;1.00
837;DHT22;400;53.550;9.932;2024-03-08T15:49:07;9.60;1.00
837;DHT22;400;53.550;9.932;2024-03-08T15:51:34;9.60;1.00
837;DHT22;400;53.550;9.932;2024-03-08T15:54:04;9.70;1.00
837;DHT22;400;53.550;9.932;2024-03-08T15:56:36;9.60;1.00
837;DHT22;400;53.550;9.932;2024-03-08T15:59:06;9.60;1.00
837;DHT22;400;53.550;9.932;2024-03-08T16:01:34;9.60;1.00
837;DHT22;400;53.550;9.932;2024-03-08T16:04:04;9.60;1.00
837;DHT22;400;53.550;9.932;2024-03-08T16:06:39;9.60;1.00
837;DHT22;400;53.550;9.932;2024-03-08T16:09:12;9.60;1.00
837;DHT22;400;53.550;9.932;2024-03-08T16:11:45;9.50;1.00
837;DHT22;400;53.550;9.932;2024-03-08T16:14:14;9.50;1.00
837;DHT22;400;53.550;9.932;2024-03-08T16:16:42;9.50;1.00
837;DHT22;400;53.550;9.932;2024-03-08T16:19:09;9.50;1.00
837;DHT22;400;53.550;9.932;2024-03-08T16:21:40;9.50;1.00
837;DHT22;400;53.550;9.932;2024-03-08T16:24:11;9.40;1.00
837;DHT22;400;53.550;9.932;2024-03-08T16:26:46;9.40;1.00
837;DHT22;400;53.550;9.932;2024-03-08T16:29:32;9.50;1.00
837;DHT22;400;53.550;9.932;2024-03-08T16:32:04;9.50;1.00
837;DHT22;400;53.550;9.932;2024-03-08T16:34:34;9.40;1.00
837;DHT22;400;53.550;9.932;2024-03-08T16:37:03;9.40;1.00
837;DHT22;400;53.550;9.932;2024-03-08T16:39:31;9.40;1.00
837;DHT22;400;53.550;9.932;2024-03-08T16:41:58;9.40;1.00
837;DHT22;400;53.550;9.932;2024-03-08T16:44:28;9.30;1.00
837;DHT22;400;53.550;9.932;2024-03-08T16:47:04;9.30;1.00
837;DHT22;400;53.550;9.932;2024-03-08T16:49:42;9.30;1.00
837;DHT22;400;53.550;9.932;2024-03-08T16:52:14;9.40;1.00
837;DHT22;400;53.550;9.932;2024-03-08T16:54:42;9.30;1.00
837;DHT22;400;53.550;9.932;2024-03-08T16:57:10;9.30;1.00
837;DHT22;400;53.550;9.932;2024-03-08T16:59:39;9.30;1.00
837;DHT22;400;53.550;9.932;2024-03-08T17:02:07;9.30;1.00
837;DHT22;400;53.550;9.932;2024-03-08T17:04:37;9.30;1.00
837;DHT22;400;53.550;9.932;2024-03-08T17:07:05;9.20;1.00
837;DHT22;400;53.550;9.932;2024-03-08T17:09:34;9.20;1.00
837;DHT22;400;53.550;9.932;2024-03-08T17:12:05;9.20;1.00
837;DHT22;400;53.550;9.932;2024-03-08T17:14:48;9.10;1.00
837;DHT22;400;53.550;9.932;2024-03-08T17:17:17;9.20;1.00
837;DHT22;400;53.550;9.932;2024-03-08T17:19:49;9.20;1.00
837;DHT22;400;53.550;9.932;2024-03-08T17:22:19;9.10;1.00
837;DHT22;400;53.550;9.932;2024-03-08T17:24:50;9.10;1.00
837;DHT22;400;53.550;9.932;2024-03-08T17:27:26;9.00;1.00
837;DHT22;400;53.550;9.932;2024-03-08T17:30:03;9.00;1.00